Time;durP1;ratioP1;P1;durP2;ratioP2;P2;SDS_P1;SDS_P2;PMS_P1;PMS_P2;Temp;Humidity;BMP_temperature;BMP_pressure;BME280_temperature;BME280_humidity;BME280_pressure;Samples;Min_cycle;Max_cycle;Signal;HPM_P1;HPM_P2
2023/08/21 00:01:41;;;;;;;9.38;3.22;;;20.10;99.90;;;;;;5118053;27;20241;-86
2023/08/21 00:04:08;;;;;;;5.35;3.08;;;20.20;99.90;;;;;;5113391;27;20199;-86
2023/08/21 00:06:35;;;;;;;8.10;3.22;;;20.10;99.90;;;;;;5107226;28;20252;-84
2023/08/21 00:09:02;;;;;;;7.85;3.70;;;20.00;99.90;;;;;;5098029;28;20203;-86
2023/08/21 00:11:29;;;;;;;6.70;3.35;;;20.00;99.90;;;;;;5101645;27;20230;-87
2023/08/21 00:13:55;;;;;;;6.30;3.17;;;19.90;99.90;;;;;;5106161;27;20202;-85
2023/08/21 00:16:23;;;;;;;4.53;2.80;;;19.90;99.90;;;;;;5113925;27;20215;-86
2023/08/21 00:18:49;;;;;;;4.53;3.42;;;19.90;99.90;;;;;;5103944;28;20199;-85
2023/08/21 00:21:16;;;;;;;6.82;3.38;;;19.90;99.90;;;;;;5105814;28;20202;-86
2023/08/21 00:23:43;;;;;;;6.22;2.72;;;19.90;99.90;;;;;;5101781;28;20204;-87
2023/08/21 00:26:10;;;;;;;6.72;2.78;;;19.90;99.90;;;;;;5112433;28;20658;-86
2023/08/21 00:28:37;;;;;;;5.28;2.83;;;20.00;99.90;;;;;;5104238;28;20200;-85
2023/08/21 00:31:04;;;;;;;6.35;2.70;;;19.90;99.90;;;;;;5108522;28;20215;-84
2023/08/21 00:33:32;;;;;;;4.43;2.30;;;20.00;99.90;;;;;;5104944;28;20612;-85
2023/08/21 00:35:59;;;;;;;4.25;2.03;;;20.00;99.90;;;;;;5112906;28;20206;-87
2023/08/21 00:38:27;;;;;;;7.43;2.67;;;20.00;99.90;;;;;;5109549;28;20280;-86
2023/08/21 00:40:54;;;;;;;4.75;2.28;;;20.00;99.90;;;;;;5096001;28;20207;-85
2023/08/21 00:43:21;;;;;;;3.45;1.80;;;20.00;99.90;;;;;;5120613;27;20206;-87
2023/08/21 00:45:50;;;;;;;3.70;1.60;;;19.90;99.90;;;;;;5116587;27;20230;-86
2023/08/21 00:48:18;;;;;;;3.53;1.92;;;19.90;99.90;;;;;;5103808;28;20199;-84
2023/08/21 00:50:45;;;;;;;4.55;2.15;;;20.00;99.90;;;;;;5096615;28;20243;-85
2023/08/21 00:53:13;;;;;;;3.65;1.73;;;19.90;99.90;;;;;;5110797;28;20245;-85
2023/08/21 00:55:40;;;;;;;7.90;2.78;;;19.70;99.90;;;;;;5114552;28;20954;-84
2023/08/21 00:58:12;;;;;;;4.65;1.95;;;19.90;99.90;;;;;;5107434;28;20581;-87
2023/08/21 01:00:41;;;;;;;4.38;2.00;;;19.80;99.90;;;;;;5095559;28;20325;-85
2023/08/21 01:03:10;;;;;;;4.78;1.75;;;19.80;99.90;;;;;;5114259;28;20207;-85
2023/08/21 01:05:37;;;;;;;5.85;2.17;;;19.80;99.90;;;;;;5098145;28;20202;-85
2023/08/21 01:08:40;;;;;;;4.00;1.85;;;19.80;99.90;;;;;;5102157;28;20630;-85
2023/08/21 01:11:27;;;;;;;3.72;2.40;;;19.80;99.90;;;;;;5097470;28;20195;-85
2023/08/21 01:14:16;;;;;;;3.17;1.70;;;19.70;99.90;;;;;;5096318;27;20243;-86
2023/08/21 01:16:46;;;;;;;3.38;2.00;;;19.70;99.90;;;;;;5098904;28;20231;-85
2023/08/21 01:19:45;;;;;;;3.78;1.85;;;19.70;99.90;;;;;;5102280;28;20199;-86
2023/08/21 01:22:12;;;;;;;4.05;2.05;;;19.70;99.90;;;;;;5085819;28;20203;-86
2023/08/21 01:24:38;;;;;;;4.90;2.00;;;19.60;99.90;;;;;;5113565;28;20196;-86
2023/08/21 01:27:05;;;;;;;4.22;1.77;;;19.60;99.90;;;;;;5113793;28;20191;-85
2023/08/21 01:29:33;;;;;;;3.42;2.05;;;19.50;99.90;;;;;;5114701;27;20736;-87
2023/08/21 01:32:20;;;;;;;4.28;2.45;;;19.30;99.90;;;;;;5107230;28;20264;-86
2023/08/21 01:34:48;;;;;;;2.83;1.83;;;19.30;99.90;;;;;;5111876;28;20248;-85
2023/08/21 01:37:16;;;;;;;5.05;1.92;;;19.30;99.90;;;;;;5103949;28;20230;-87
2023/08/21 01:39:43;;;;;;;4.22;1.90;;;19.20;99.90;;;;;;5107448;28;20203;-85
2023/08/21 01:42:10;;;;;;;5.18;2.65;;;19.20;99.90;;;;;;5099295;28;20207;-87
2023/08/21 01:44:36;;;;;;;4.03;2.53;;;19.20;99.90;;;;;;5128656;27;20341;-87
2023/08/21 01:47:03;;;;;;;3.67;2.25;;;19.10;99.90;;;;;;5115897;27;20218;-84
2023/08/21 01:49:30;;;;;;;8.07;2.35;;;19.20;99.90;;;;;;5102037;28;20214;-86
2023/08/21 01:51:57;;;;;;;2.90;1.90;;;19.20;99.90;;;;;;5108643;28;20284;-86
2023/08/21 01:54:27;;;;;;;2.97;1.90;;;19.20;99.90;;;;;;5094583;28;20202;-87
2023/08/21 01:56:54;;;;;;;4.20;1.88;;;19.10;99.90;;;;;;5100145;28;20768;-85
2023/08/21 01:59:21;;;;;;;4.22;2.00;;;19.10;99.90;;;;;;5097225;28;20199;-86
2023/08/21 02:01:48;;;;;;;6.47;2.15;;;19.10;99.90;;;;;;5119161;27;20287;-86
2023/08/21 02:04:15;;;;;;;7.63;2.20;;;19.10;99.90;;;;;;5114132;27;20206;-86
2023/08/21 02:06:43;;;;;;;3.05;1.83;;;19.00;99.90;;;;;;5107909;28;20213;-84
2023/08/21 02:09:11;;;;;;;4.13;1.80;;;19.00;99.90;;;;;;5090660;28;20283;-85
2023/08/21 02:11:38;;;;;;;2.80;2.00;;;19.00;99.90;;;;;;5096532;27;20256;-86
2023/08/21 02:14:04;;;;;;;4.93;1.52;;;19.00;99.90;;;;;;5107965;27;20573;-84
2023/08/21 02:16:35;;;;;;;3.22;1.77;;;18.90;99.90;;;;;;5093516;28;20211;-87
2023/08/21 02:19:02;;;;;;;3.97;2.03;;;18.90;99.90;;;;;;5105769;27;20701;-86
2023/08/21 02:21:29;;;;;;;3.53;1.80;;;18.90;99.90;;;;;;5111295;28;20207;-84
2023/08/21 02:23:55;;;;;;;3.08;1.73;;;18.80;99.90;;;;;;5094535;28;20231;-85
2023/08/21 02:26:22;;;;;;;3.65;2.00;;;18.80;99.90;;;;;;5118518;27;20575;-87
2023/08/21 02:28:49;;;;;;;3.58;1.70;;;18.90;99.90;;;;;;5104363;28;20207;-86
2023/08/21 02:31:16;;;;;;;4.35;1.85;;;18.80;99.90;;;;;;5132242;27;20230;-85
2023/08/21 02:33:43;;;;;;;5.30;2.28;;;18.80;99.90;;;;;;5098875;28;20678;-86
2023/08/21 02:36:09;;;;;;;4.50;1.90;;;18.70;99.90;;;;;;5109425;28;20215;-85
2023/08/21 02:38:36;;;;;;;4.35;1.83;;;18.70;99.90;;;;;;5122356;27;20987;-85
2023/08/21 02:41:03;;;;;;;3.83;1.80;;;18.70;99.90;;;;;;5138590;27;20224;-85
2023/08/21 02:43:30;;;;;;;3.05;1.95;;;18.70;99.90;;;;;;5120659;27;20676;-85
2023/08/21 02:45:57;;;;;;;2.38;1.77;;;18.70;99.90;;;;;;5095682;27;20215;-86
2023/08/21 02:48:23;;;;;;;6.03;1.80;;;18.70;99.90;;;;;;5132954;27;20191;-86
2023/08/21 02:50:50;;;;;;;6.55;2.08;;;18.70;99.90;;;;;;5118959;27;20191;-84
2023/08/21 02:53:17;;;;;;;3.58;1.90;;;18.60;99.90;;;;;;5106282;28;20223;-85
2023/08/21 02:55:44;;;;;;;4.85;2.10;;;18.60;99.90;;;;;;5112348;28;20195;-85
2023/08/21 02:58:11;;;;;;;4.07;2.17;;;18.60;99.90;;;;;;5114185;27;20298;-85
2023/08/21 03:00:37;;;;;;;3.35;1.58;;;18.60;99.90;;;;;;5110252;27;20214;-84
2023/08/21 03:03:04;;;;;;;3.42;2.00;;;18.60;99.90;;;;;;5110432;28;20191;-86
2023/08/21 03:05:31;;;;;;;4.75;1.83;;;18.60;99.90;;;;;;5117731;27;20196;-86
2023/08/21 03:07:58;;;;;;;3.42;2.05;;;18.60;99.90;;;;;;5110677;27;20607;-85
2023/08/21 03:10:26;;;;;;;4.78;2.30;;;18.60;99.90;;;;;;5103493;28;20253;-87
2023/08/21 03:12:54;;;;;;;3.47;1.85;;;18.50;99.90;;;;;;5117170;27;20217;-85
2023/08/21 03:15:21;;;;;;;4.20;2.60;;;18.60;99.90;;;;;;5101993;27;20207;-85
2023/08/21 03:17:48;;;;;;;4.30;2.20;;;18.60;99.90;;;;;;5099792;27;20691;-85
2023/08/21 03:20:17;;;;;;;3.33;2.30;;;18.50;99.90;;;;;;5114729;27;20608;-85
2023/08/21 03:22:44;;;;;;;4.25;2.10;;;18.50;99.90;;;;;;5098419;28;20206;-84
2023/08/21 03:25:11;;;;;;;4.10;2.40;;;18.50;99.90;;;;;;5091970;28;20207;-85
2023/08/21 03:27:44;;;;;;;5.15;2.22;;;18.50;99.90;;;;;;5107461;27;20206;-86
2023/08/21 03:30:14;;;;;;;4.35;2.15;;;18.50;99.90;;;;;;5114604;27;20237;-84
2023/08/21 03:32:42;;;;;;;3.47;2.10;;;18.50;99.90;;;;;;5108035;27;20199;-85
2023/08/21 03:35:09;;;;;;;7.80;2.70;;;18.50;99.90;;;;;;5094583;28;20211;-86
2023/08/21 03:37:35;;;;;;;4.15;2.20;;;18.50;99.90;;;;;;5111807;27;20225;-86
2023/08/21 03:40:03;;;;;;;5.68;2.72;;;18.50;99.90;;;;;;5111233;28;20641;-87
2023/08/21 03:42:30;;;;;;;2.53;2.10;;;18.50;99.90;;;;;;5135477;27;20199;-86
2023/08/21 03:44:57;;;;;;;4.88;2.40;;;18.50;99.90;;;;;;5131026;27;20264;-86
2023/08/21 03:47:24;;;;;;;4.88;2.30;;;18.50;99.90;;;;;;5099179;28;20222;-84
2023/08/21 03:49:50;;;;;;;4.00;2.20;;;18.50;99.90;;;;;;5133083;27;20202;-86
2023/08/21 03:52:17;;;;;;;4.20;2.00;;;18.50;99.90;;;;;;5134855;27;20230;-86
2023/08/21 03:54:45;;;;;;;4.40;2.75;;;18.50;99.90;;;;;;5099836;28;20199;-86
2023/08/21 03:57:12;;;;;;;3.67;2.40;;;18.50;99.90;;;;;;5105650;27;20331;-86
2023/08/21 03:59:39;;;;;;;4.35;2.60;;;18.50;99.90;;;;;;5114351;27;20599;-84
2023/08/21 04:02:06;;;;;;;3.50;1.98;;;18.50;99.90;;;;;;5122537;27;20218;-85
2023/08/21 04:04:33;;;;;;;2.55;2.00;;;18.50;99.90;;;;;;5093281;27;20250;-85
2023/08/21 04:07:00;;;;;;;3.35;2.10;;;18.40;99.90;;;;;;5108787;28;20195;-85
2023/08/21 04:09:26;;;;;;;4.72;2.22;;;18.50;99.90;;;;;;5098540;28;20219;-85
2023/08/21 04:11:53;;;;;;;3.97;2.45;;;18.40;99.90;;;;;;5104965;28;20876;-86
2023/08/21 04:14:20;;;;;;;5.93;2.75;;;18.30;99.90;;;;;;5113054;27;20254;-84
2023/08/21 04:16:47;;;;;;;6.07;2.70;;;18.20;99.90;;;;;;5118693;27;20214;-86
2023/08/21 04:19:13;;;;;;;3.38;2.42;;;18.20;99.90;;;;;;5112826;27;20562;-84
2023/08/21 04:21:41;;;;;;;4.65;2.55;;;18.10;99.90;;;;;;5106947;28;20198;-86
2023/08/21 04:24:07;;;;;;;3.95;2.45;;;18.10;99.90;;;;;;5093269;28;20199;-88
2023/08/21 04:26:34;;;;;;;5.30;2.75;;;18.00;99.90;;;;;;5095499;28;20213;-85
2023/08/21 04:29:01;;;;;;;5.68;2.22;;;18.00;99.90;;;;;;5105156;28;20603;-84
2023/08/21 04:31:28;;;;;;;5.05;2.58;;;17.90;99.90;;;;;;5111716;28;20215;-85
2023/08/21 04:33:55;;;;;;;4.68;2.55;;;17.90;99.90;;;;;;5114634;28;20240;-85
2023/08/21 04:36:22;;;;;;;6.60;2.97;;;17.80;99.90;;;;;;5106202;28;20199;-86
2023/08/21 04:38:49;;;;;;;5.00;2.42;;;17.80;99.90;;;;;;5104171;28;20230;-85
2023/08/21 04:41:16;;;;;;;5.35;2.80;;;17.80;99.90;;;;;;5107910;28;20214;-88
2023/08/21 04:43:43;;;;;;;3.28;2.70;;;17.90;99.90;;;;;;5097206;28;20522;-84
2023/08/21 04:46:10;;;;;;;3.30;2.45;;;17.60;99.90;;;;;;5102126;28;20257;-84
2023/08/21 04:48:37;;;;;;;5.50;3.03;;;17.70;99.90;;;;;;5095739;28;20226;-84
2023/08/21 04:51:04;;;;;;;3.40;2.45;;;17.80;99.90;;;;;;5099423;28;20280;-84
2023/08/21 04:53:31;;;;;;;6.57;3.08;;;17.70;99.90;;;;;;5080928;28;20708;-83
2023/08/21 04:56:03;;;;;;;3.10;2.80;;;17.70;99.90;;;;;;5114930;28;20190;-87
2023/08/21 04:58:30;;;;;;;4.78;2.60;;;17.80;99.90;;;;;;5100320;28;20299;-84
2023/08/21 05:00:57;;;;;;;5.10;2.80;;;17.90;99.90;;;;;;5106554;28;20723;-83
2023/08/21 05:03:24;;;;;;;5.03;2.72;;;18.00;99.90;;;;;;5118223;27;20219;-83
2023/08/21 05:05:55;;;;;;;4.10;3.15;;;18.00;99.90;;;;;;5090346;28;20267;-85
2023/08/21 05:08:24;;;;;;;5.55;3.20;;;18.10;99.90;;;;;;5113638;28;20215;-84
2023/08/21 05:10:58;;;;;;;6.32;3.33;;;18.20;99.90;;;;;;5105587;28;20200;-87
2023/08/21 05:13:25;;;;;;;7.45;2.55;;;18.30;99.90;;;;;;5096556;28;20678;-84
2023/08/21 05:15:56;;;;;;;7.03;2.88;;;18.30;99.90;;;;;;5070955;28;20696;-84
2023/08/21 05:18:24;;;;;;;3.92;2.58;;;18.40;99.90;;;;;;5104101;28;20725;-85
2023/08/21 05:20:53;;;;;;;3.70;2.80;;;18.40;99.90;;;;;;5104690;28;20206;-85
2023/08/21 05:23:21;;;;;;;4.97;2.58;;;18.40;99.90;;;;;;5089540;28;20580;-87
2023/08/21 05:25:50;;;;;;;5.05;3.00;;;18.50;99.90;;;;;;5102907;27;20652;-83
2023/08/21 05:28:17;;;;;;;3.80;2.60;;;18.50;99.90;;;;;;5097639;28;20207;-84
2023/08/21 05:30:47;;;;;;;4.10;2.88;;;18.60;99.90;;;;;;5099797;27;20316;-85
2023/08/21 05:33:14;;;;;;;5.63;2.60;;;18.50;99.90;;;;;;5114711;27;20206;-84
2023/08/21 05:35:41;;;;;;;5.03;3.03;;;18.70;99.90;;;;;;5095002;28;20195;-84
2023/08/21 05:38:08;;;;;;;5.28;3.05;;;18.80;99.90;;;;;;5112301;28;20291;-85
2023/08/21 05:40:36;;;;;;;4.75;2.58;;;18.90;99.90;;;;;;5111340;27;20195;-84
2023/08/21 05:43:03;;;;;;;8.38;3.13;;;19.20;99.90;;;;;;5090094;28;20195;-84
2023/08/21 05:45:30;;;;;;;4.90;2.90;;;19.00;99.90;;;;;;5108362;27;20225;-84
2023/08/21 05:47:57;;;;;;;4.93;2.90;;;19.10;99.90;;;;;;5107140;27;20207;-83
2023/08/21 05:50:23;;;;;;;5.63;2.85;;;19.10;99.90;;;;;;5125667;27;20597;-85
2023/08/21 05:52:50;;;;;;;6.30;2.60;;;19.20;99.90;;;;;;5112641;27;20242;-84
2023/08/21 05:55:18;;;;;;;8.25;2.85;;;19.80;99.90;;;;;;5102139;28;20257;-84
2023/08/21 05:57:45;;;;;;;5.00;3.38;;;19.90;99.90;;;;;;5094814;28;20199;-84
2023/08/21 06:00:13;;;;;;;5.40;3.42;;;19.50;99.90;;;;;;5092846;28;20202;-83
2023/08/21 06:02:41;;;;;;;7.40;3.80;;;19.80;99.90;;;;;;5110776;28;20719;-84
2023/08/21 06:05:09;;;;;;;6.72;3.50;;;20.00;99.90;;;;;;5117851;27;20647;-81
2023/08/21 06:07:35;;;;;;;8.63;3.35;;;20.10;99.90;;;;;;5080878;28;20200;-83
2023/08/21 06:10:04;;;;;;;5.22;3.08;;;20.50;99.90;;;;;;5109573;27;20199;-79
2023/08/21 06:12:31;;;;;;;6.07;2.70;;;20.40;99.90;;;;;;5121809;27;20245;-82
2023/08/21 06:14:58;;;;;;;7.95;3.22;;;20.60;99.90;;;;;;5116208;27;20219;-81
2023/08/21 06:17:27;;;;;;;9.25;3.42;;;20.70;99.90;;;;;;5122337;27;20305;-82
2023/08/21 06:19:54;;;;;;;4.38;2.60;;;20.90;99.90;;;;;;5114328;27;20310;-83
2023/08/21 06:22:20;;;;;;;5.93;2.90;;;21.10;99.90;;;;;;5118682;27;20247;-83
2023/08/21 06:24:47;;;;;;;6.30;2.92;;;21.30;99.90;;;;;;5114692;27;20202;-82
2023/08/21 06:27:14;;;;;;;6.38;3.47;;;21.30;99.90;;;;;;5114429;27;20199;-83
2023/08/21 06:29:41;;;;;;;9.88;3.45;;;21.40;99.90;;;;;;5114425;27;20213;-82
2023/08/21 06:32:08;;;;;;;11.23;3.42;;;21.30;99.90;;;;;;5108851;28;20208;-80
2023/08/21 06:34:35;;;;;;;9.02;3.28;;;21.30;99.90;;;;;;5099116;27;20211;-80
2023/08/21 06:37:01;;;;;;;6.28;3.08;;;21.50;99.90;;;;;;5106177;28;20671;-81
2023/08/21 06:39:28;;;;;;;9.18;3.53;;;21.70;99.90;;;;;;5114459;27;20219;-81
2023/08/21 06:41:55;;;;;;;6.53;3.17;;;21.90;99.90;;;;;;5115754;27;20686;-81
2023/08/21 06:44:22;;;;;;;9.00;3.05;;;22.30;99.90;;;;;;5124335;27;20221;-83
2023/08/21 06:46:49;;;;;;;4.75;2.65;;;22.90;99.90;;;;;;5119041;27;20268;-81
2023/08/21 06:49:16;;;;;;;7.78;2.78;;;23.70;99.90;;;;;;5119912;27;20608;-81
2023/08/21 06:51:43;;;;;;;9.05;2.63;;;24.90;99.90;;;;;;5114805;27;20199;-81
2023/08/21 06:54:10;;;;;;;9.63;2.58;;;25.50;99.90;;;;;;5117296;27;20222;-82
2023/08/21 06:56:36;;;;;;;4.88;2.03;;;26.40;99.90;;;;;;5107399;27;20275;-83
2023/08/21 06:59:03;;;;;;;4.88;2.13;;;27.10;99.90;;;;;;5107311;28;20279;-83
2023/08/21 07:01:30;;;;;;;6.65;2.55;;;27.70;99.90;;;;;;5111712;28;20220;-82
2023/08/21 07:03:57;;;;;;;8.45;2.97;;;28.30;99.90;;;;;;5111539;28;20207;-83
2023/08/21 07:06:24;;;;;;;6.90;2.47;;;28.80;99.90;;;;;;5101721;28;20253;-84
2023/08/21 07:08:50;;;;;;;7.15;2.65;;;29.40;99.90;;;;;;5111388;28;20207;-82
2023/08/21 07:11:17;;;;;;;6.13;2.40;;;29.60;99.90;;;;;;5123298;27;20264;-82
2023/08/21 07:13:44;;;;;;;4.72;2.60;;;29.90;99.90;;;;;;5099383;27;20602;-83
2023/08/21 07:16:11;;;;;;;10.20;2.47;;;30.20;99.90;;;;;;5131765;27;20214;-83
2023/08/21 07:18:38;;;;;;;5.88;2.60;;;29.90;99.90;;;;;;5109027;28;20260;-84
2023/08/21 07:21:05;;;;;;;5.13;1.80;;;29.20;99.90;;;;;;5106108;27;20595;-83
2023/08/21 07:23:52;;;;;;;5.05;1.90;;;28.50;99.90;;;;;;5121612;27;20552;-82
2023/08/21 07:26:19;;;;;;;6.00;2.15;;;27.90;99.90;;;;;;5131907;27;20202;-83
2023/08/21 07:28:46;;;;;;;8.15;2.88;;;27.60;99.90;;;;;;5099133;27;20213;-83
2023/08/21 07:31:12;;;;;;;7.80;2.63;;;27.40;99.90;;;;;;5131938;27;20224;-82
2023/08/21 07:33:39;;;;;;;8.10;2.70;;;27.40;99.90;;;;;;5131391;27;20210;-81
2023/08/21 07:36:07;;;;;;;7.72;2.10;;;27.40;99.90;;;;;;5114182;27;20219;-83
2023/08/21 07:38:33;;;;;;;5.00;1.60;;;27.50;99.90;;;;;;5094865;28;20223;-82
2023/08/21 07:41:12;;;;;;;5.28;2.10;;;27.70;99.90;;;;;;5098421;28;20214;-82
2023/08/21 07:43:41;;;;;;;4.25;2.10;;;28.00;99.90;;;;;;5106653;27;20262;-81
2023/08/21 07:46:12;;;;;;;7.75;2.38;;;28.00;99.90;;;;;;5118164;27;20627;-84
2023/08/21 07:48:39;;;;;;;5.15;1.80;;;28.20;99.90;;;;;;5119024;27;20227;-82
2023/08/21 07:51:06;;;;;;;6.10;1.50;;;28.60;99.90;;;;;;5105096;27;20206;-82
2023/08/21 07:53:34;;;;;;;7.20;1.90;;;29.10;99.90;;;;;;5130915;27;20238;-81
2023/08/21 07:56:03;;;;;;;5.70;1.80;;;29.50;99.90;;;;;;5131159;27;20209;-81
2023/08/21 07:58:31;;;;;;;5.45;2.15;;;29.50;99.90;;;;;;5098420;27;20231;-82
2023/08/21 08:00:59;;;;;;;6.55;1.83;;;29.50;99.90;;;;;;5112478;27;20230;-82
2023/08/21 08:03:25;;;;;;;4.57;1.92;;;29.60;99.90;;;;;;5118871;27;20214;-80
2023/08/21 08:05:52;;;;;;;6.03;1.98;;;29.90;99.90;;;;;;5113046;27;20276;-81
2023/08/21 08:08:22;;;;;;;5.32;2.17;;;30.20;99.90;;;;;;5109615;27;20268;-82
2023/08/21 08:10:49;;;;;;;4.15;2.00;;;30.50;99.90;;;;;;5121794;27;20251;-83
2023/08/21 08:13:16;;;;;;;8.73;3.00;;;30.70;99.90;;;;;;5109278;27;20194;-83
2023/08/21 08:15:43;;;;;;;6.68;2.50;;;31.00;99.90;;;;;;5130835;27;20302;-81
2023/08/21 08:18:13;;;;;;;5.60;2.28;;;31.10;99.90;;;;;;5117773;27;20335;-83
2023/08/21 08:20:40;;;;;;;8.25;3.13;;;31.20;99.90;;;;;;5118856;27;20232;-81
2023/08/21 08:23:07;;;;;;;6.00;2.72;;;30.90;99.90;;;;;;5114292;28;20210;-83
2023/08/21 08:25:34;;;;;;;5.97;2.83;;;30.50;99.90;;;;;;5117487;28;20936;-83
2023/08/21 08:28:01;;;;;;;5.15;2.67;;;30.30;99.90;;;;;;5119324;28;20225;-82
2023/08/21 08:30:28;;;;;;;4.25;2.20;;;30.10;99.90;;;;;;5114515;28;20230;-81
2023/08/21 08:32:55;;;;;;;5.97;1.80;;;30.30;99.90;;;;;;5131129;28;20920;-82
2023/08/21 08:35:22;;;;;;;5.57;2.25;;;30.60;99.90;;;;;;5108248;28;20640;-82
2023/08/21 08:37:49;;;;;;;6.18;2.67;;;30.90;99.90;;;;;;5112364;28;20214;-83
2023/08/21 08:40:16;;;;;;;3.70;1.80;;;31.10;99.90;;;;;;5124838;28;20233;-82
2023/08/21 08:42:43;;;;;;;4.95;1.88;;;31.10;99.90;;;;;;5098164;28;20221;-82
2023/08/21 08:45:14;;;;;;;6.93;1.73;;;30.90;99.90;;;;;;5099011;28;20211;-82
2023/08/21 08:47:41;;;;;;;6.10;1.50;;;30.80;99.90;;;;;;5104317;28;20566;-83
2023/08/21 08:50:09;;;;;;;5.40;1.90;;;30.80;99.90;;;;;;5124689;28;20654;-81
2023/08/21 08:52:38;;;;;;;3.25;1.30;;;30.90;99.90;;;;;;5130476;27;20227;-81
2023/08/21 08:55:06;;;;;;;3.30;1.33;;;31.10;99.90;;;;;;5112235;28;21009;-83
2023/08/21 08:57:34;;;;;;;3.28;1.67;;;31.40;99.90;;;;;;5124076;28;20207;-82
2023/08/21 09:00:03;;;;;;;5.53;1.80;;;31.60;99.90;;;;;;5097775;27;20691;-81
2023/08/21 09:02:30;;;;;;;4.20;1.60;;;31.60;99.90;;;;;;5112250;28;20207;-81
2023/08/21 09:04:57;;;;;;;5.65;1.83;;;31.60;99.90;;;;;;5109147;28;20445;-82
2023/08/21 09:07:25;;;;;;;4.68;1.40;;;31.80;99.90;;;;;;5118334;27;20203;-82
2023/08/21 09:09:52;;;;;;;2.97;1.50;;;31.90;99.90;;;;;;5113760;28;20210;-82
2023/08/21 09:12:20;;;;;;;6.95;1.60;;;31.80;99.90;;;;;;5128839;27;20206;-80
2023/08/21 09:14:47;;;;;;;4.65;1.70;;;31.70;99.90;;;;;;5134624;27;20685;-83
2023/08/21 09:17:15;;;;;;;5.38;1.95;;;31.50;99.90;;;;;;5130449;27;20302;-81
2023/08/21 09:19:43;;;;;;;5.75;1.52;;;31.40;99.90;;;;;;5114005;28;20234;-82
2023/08/21 09:22:09;;;;;;;6.00;1.85;;;31.30;99.90;;;;;;5123315;27;20196;-81
2023/08/21 09:24:38;;;;;;;7.45;2.10;;;31.40;99.90;;;;;;5127284;27;20591;-85
2023/08/21 09:27:14;;;;;;;7.45;2.70;;;31.40;99.90;;;;;;5132529;27;20210;-83
2023/08/21 09:29:42;;;;;;;5.60;2.30;;;31.20;99.90;;;;;;5112862;27;20258;-81
2023/08/21 09:32:09;;;;;;;6.00;2.33;;;31.10;99.90;;;;;;5133873;27;20290;-83
2023/08/21 09:34:37;;;;;;;6.13;2.50;;;31.10;99.90;;;;;;5134302;27;20670;-80
2023/08/21 09:37:08;;;;;;;6.30;2.33;;;31.10;99.90;;;;;;5131316;27;20591;-80
2023/08/21 09:39:35;;;;;;;5.18;2.55;;;31.10;99.90;;;;;;5113269;28;20238;-81
2023/08/21 09:42:08;;;;;;;8.65;3.17;;;31.00;99.90;;;;;;5114934;27;20209;-80
2023/08/21 09:44:41;;;;;;;6.38;3.28;;;30.70;99.90;;;;;;5134310;27;20275;-82
2023/08/21 09:47:09;;;;;;;8.73;3.72;;;30.40;99.90;;;;;;5131459;27;20215;-81
2023/08/21 09:49:38;;;;;;;5.68;2.65;;;30.20;99.90;;;;;;5109339;27;20211;-82
2023/08/21 09:52:06;;;;;;;6.90;2.65;;;30.20;99.90;;;;;;5099246;27;20206;-82
2023/08/21 09:54:34;;;;;;;7.18;3.05;;;30.30;99.90;;;;;;5133384;27;20230;-82
2023/08/21 09:57:03;;;;;;;9.05;3.00;;;30.40;99.90;;;;;;5133298;27;20237;-82
2023/08/21 09:59:32;;;;;;;6.68;2.83;;;30.50;99.90;;;;;;5112374;27;20227;-81
2023/08/21 10:02:04;;;;;;;6.90;3.15;;;30.50;99.90;;;;;;5097236;27;20214;-85
2023/08/21 10:04:34;;;;;;;8.13;3.78;;;30.40;99.90;;;;;;5110262;28;20567;-82
2023/08/21 10:07:05;;;;;;;6.40;3.13;;;30.20;99.90;;;;;;5100884;28;20203;-82
2023/08/21 10:09:33;;;;;;;8.25;3.10;;;30.00;99.90;;;;;;5088849;28;20196;-82
2023/08/21 10:12:00;;;;;;;6.18;2.85;;;29.90;99.90;;;;;;5112589;27;20199;-81
2023/08/21 10:14:27;;;;;;;5.15;2.40;;;29.90;99.90;;;;;;5108011;27;20284;-80
2023/08/21 10:16:54;;;;;;;4.18;2.53;;;29.70;99.90;;;;;;5114456;27;20215;-82
2023/08/21 10:19:21;;;;;;;3.60;1.77;;;29.70;99.90;;;;;;5110036;28;20223;-81
2023/08/21 10:21:51;;;;;;;4.82;2.17;;;29.60;99.90;;;;;;5115040;27;20205;-82
2023/08/21 10:24:35;;;;;;;5.70;2.40;;;29.40;99.90;;;;;;5113820;27;20544;-83
2023/08/21 10:27:02;;;;;;;5.90;2.40;;;29.30;99.90;;;;;;5105742;28;20667;-84
2023/08/21 10:29:32;;;;;;;4.80;2.58;;;;;;;;;;5128699;27;20578;-82
2023/08/21 10:32:04;;;;;;;5.72;2.08;;;29.20;99.90;;;;;;5114413;27;20218;-84
2023/08/21 10:34:33;;;;;;;7.55;2.13;;;29.10;99.90;;;;;;5110462;28;20203;-80
2023/08/21 10:36:59;;;;;;;5.07;1.55;;;29.00;99.90;;;;;;5110736;27;20203;-82
2023/08/21 10:39:31;;;;;;;3.63;1.90;;;29.00;99.90;;;;;;5105573;27;20222;-81
2023/08/21 10:42:02;;;;;;;4.70;2.03;;;29.00;99.90;;;;;;5112524;27;20199;-82
2023/08/21 10:44:57;;;;;;;7.93;2.60;;;29.00;99.90;;;;;;5128686;27;20195;-81
2023/08/21 10:47:31;;;;;;;5.63;1.90;;;28.90;99.90;;;;;;5088465;27;20212;-80
2023/08/21 10:50:04;;;;;;;4.70;1.70;;;29.00;99.90;;;;;;5104279;27;20211;-80
2023/08/21 10:52:41;;;;;;;6.00;1.75;;;29.20;99.90;;;;;;5104822;27;20565;-80
2023/08/21 10:55:11;;;;;;;4.38;1.40;;;29.40;99.90;;;;;;5115981;27;20670;-84
2023/08/21 10:57:48;;;;;;;4.78;1.70;;;29.60;99.90;;;;;;5092979;28;20203;-81
2023/08/21 11:00:20;;;;;;;3.25;1.33;;;29.70;99.90;;;;;;5130320;27;20214;-81
2023/08/21 11:02:49;;;;;;;1.83;1.20;;;29.70;99.90;;;;;;5113988;27;20647;-81
2023/08/21 11:05:17;;;;;;;7.88;1.70;;;29.60;99.90;;;;;;5106508;27;20198;-82
2023/08/21 11:07:47;;;;;;;2.00;1.20;;;29.60;99.90;;;;;;5109995;28;20199;-81
2023/08/21 11:10:23;;;;;;;3.55;1.33;;;29.60;99.90;;;;;;5112083;27;20203;-79
2023/08/21 11:12:52;;;;;;;2.55;1.38;;;29.60;99.90;;;;;;5120528;27;20194;-82
2023/08/21 11:15:19;;;;;;;1.48;1.30;;;29.70;99.90;;;;;;5118278;27;20239;-81
2023/08/21 11:18:01;;;;;;;3.83;1.45;;;29.70;99.90;;;;;;5111078;28;20735;-80
2023/08/21 11:20:35;;;;;;;3.92;1.80;;;29.70;99.90;;;;;;5114354;27;20321;-80
2023/08/21 11:23:09;;;;;;;4.75;1.50;;;29.50;99.90;;;;;;5111386;28;20206;-83
2023/08/21 11:25:40;;;;;;;2.08;1.25;;;29.40;99.90;;;;;;5099972;27;20208;-82
2023/08/21 11:28:08;;;;;;;3.78;1.45;;;29.40;99.90;;;;;;5091354;28;20202;-83
2023/08/21 11:30:35;;;;;;;4.03;1.40;;;29.30;99.90;;;;;;5115912;27;20298;-81
2023/08/21 11:33:06;;;;;;;4.05;1.50;;;29.20;99.90;;;;;;5115017;27;20206;-81
2023/08/21 11:35:33;;;;;;;7.15;1.90;;;29.10;99.90;;;;;;5107519;27;20240;-85
2023/08/21 11:38:00;;;;;;;3.97;1.70;;;28.80;99.90;;;;;;5111170;27;20199;-81
2023/08/21 11:40:27;;;;;;;3.65;1.63;;;28.80;99.90;;;;;;5108229;27;20279;-81
2023/08/21 11:43:00;;;;;;;3.83;1.50;;;28.60;99.90;;;;;;5111519;28;20191;-82
2023/08/21 11:45:27;;;;;;;4.03;1.10;;;28.70;99.90;;;;;;5102092;28;20217;-79
2023/08/21 11:47:58;;;;;;;4.10;1.60;;;29.00;99.90;;;;;;5106429;28;20237;-84
2023/08/21 11:50:25;;;;;;;2.80;1.45;;;29.20;99.90;;;;;;5122774;27;20531;-81
2023/08/21 11:52:53;;;;;;;3.85;1.30;;;29.20;99.90;;;;;;5111308;28;20711;-80
2023/08/21 11:55:19;;;;;;;4.72;1.33;;;29.20;99.90;;;;;;5122617;27;20691;-79
2023/08/21 11:57:51;;;;;;;2.00;1.10;;;29.30;99.90;;;;;;5116848;27;20289;-83
2023/08/21 12:00:27;;;;;;;1.92;0.90;;;29.50;99.90;;;;;;5112420;27;20249;-80
2023/08/21 12:02:59;;;;;;;3.00;1.10;;;29.70;99.90;;;;;;5128353;27;20537;-82
2023/08/21 12:05:27;;;;;;;1.42;1.10;;;29.90;99.90;;;;;;5112622;27;20721;-81
2023/08/21 12:07:55;;;;;;;3.55;1.00;;;30.00;99.90;;;;;;5110813;27;20191;-80
2023/08/21 12:10:25;;;;;;;2.90;1.05;;;30.10;99.90;;;;;;5091976;27;20198;-83
2023/08/21 12:12:52;;;;;;;4.25;1.60;;;30.00;99.90;;;;;;5118680;27;20204;-81
2023/08/21 12:15:19;;;;;;;2.53;1.00;;;29.80;99.90;;;;;;5118641;27;20214;-82
2023/08/21 12:17:46;;;;;;;3.17;1.08;;;29.90;99.90;;;;;;5110182;28;20210;-81
2023/08/21 12:20:13;;;;;;;2.70;1.10;;;30.20;99.90;;;;;;5121062;27;20290;-79
2023/08/21 12:22:43;;;;;;;3.42;1.17;;;30.40;99.90;;;;;;5116879;27;20203;-79
2023/08/21 12:25:13;;;;;;;2.97;1.10;;;;;;;;;;5123533;28;20212;-80
2023/08/21 12:27:39;;;;;;;2.40;1.10;;;30.30;99.90;;;;;;5093622;28;20256;-79
2023/08/21 12:30:08;;;;;;;3.40;1.40;;;30.20;99.90;;;;;;5118636;28;20206;-80
2023/08/21 12:32:34;;;;;;;2.05;1.02;;;30.30;99.90;;;;;;5130472;27;20202;-79
2023/08/21 12:35:01;;;;;;;3.47;1.15;;;30.20;99.90;;;;;;5130406;27;20198;-79
2023/08/21 12:37:28;;;;;;;2.85;1.40;;;30.20;99.90;;;;;;5125722;27;20251;-79
2023/08/21 12:39:55;;;;;;;2.53;0.90;;;30.30;99.90;;;;;;5118077;27;20682;-80
2023/08/21 12:42:22;;;;;;;2.25;1.08;;;30.50;99.90;;;;;;5109399;28;20617;-82
2023/08/21 12:44:51;;;;;;;4.35;1.00;;;30.60;99.60;;;;;;5123925;27;20262;-81
2023/08/21 12:47:17;;;;;;;3.28;1.10;;;30.80;99.30;;;;;;5118627;27;20215;-79
2023/08/21 12:49:47;;;;;;;2.10;1.00;;;31.10;99.60;;;;;;5119931;27;20322;-80
2023/08/21 12:52:14;;;;;;;1.65;0.80;;;31.20;98.80;;;;;;5113570;27;20207;-79
2023/08/21 12:54:40;;;;;;;1.90;1.00;;;31.20;97.00;;;;;;5118606;27;20229;-81